sensor_id;sensor_type;location;lat;lon;timestamp;pressure;altitude;pressure_sealevel;temperature;humidity
71857;BME280;59712;46.980;28.882;2022-08-19T00:02:12;100232.34;;;21.38;83.05
71857;BME280;59712;46.980;28.882;2022-08-19T00:04:39;100222.69;;;21.36;83.10
71857;BME280;59712;46.980;28.882;2022-08-19T00:07:07;100240.03;;;21.33;83.18
71857;BME280;59712;46.980;28.882;2022-08-19T00:09:34;100243.72;;;21.32;83.39
71857;BME280;59712;46.980;28.882;2022-08-19T00:12:01;100236.63;;;21.31;83.32
71857;BME280;59712;46.980;28.882;2022-08-19T00:14:31;100243.00;;;21.30;83.08
71857;BME280;59712;46.980;28.882;2022-08-19T00:16:59;100236.88;;;21.28;83.24
71857;BME280;59712;46.980;28.882;2022-08-19T00:19:26;100232.50;;;21.27;83.14
71857;BME280;59712;46.980;28.882;2022-08-19T00:21:53;100228.19;;;21.24;82.96
71857;BME280;59712;46.980;28.882;2022-08-19T00:24:23;100238.03;;;21.25;83.32
71857;BME280;59712;46.980;28.882;2022-08-19T00:26:51;100231.06;;;21.23;83.02
71857;BME280;59712;46.980;28.882;2022-08-19T00:29:20;100231.19;;;21.21;83.32
71857;BME280;59712;46.980;28.882;2022-08-19T00:31:47;100234.03;;;21.20;83.33
71857;BME280;59712;46.980;28.882;2022-08-19T00:34:16;100237.69;;;21.19;83.06
71857;BME280;59712;46.980;28.882;2022-08-19T00:36:44;100240.41;;;21.19;83.12
71857;BME280;59712;46.980;28.882;2022-08-19T00:39:12;100237.56;;;21.20;82.81
71857;BME280;59712;46.980;28.882;2022-08-19T00:41:40;100239.44;;;21.20;83.06
71857;BME280;59712;46.980;28.882;2022-08-19T00:44:15;100234.03;;;21.20;83.01
71857;BME280;59712;46.980;28.882;2022-08-19T00:46:45;100236.84;;;21.18;83.09
71857;BME280;59712;46.980;28.882;2022-08-19T00:49:47;100236.00;;;21.18;83.05
71857;BME280;59712;46.980;28.882;2022-08-19T00:52:22;100234.44;;;21.15;83.23
71857;BME280;59712;46.980;28.882;2022-08-19T00:54:51;100235.56;;;21.13;83.07
71857;BME280;59712;46.980;28.882;2022-08-19T00:57:25;100234.72;;;21.12;83.30
71857;BME280;59712;46.980;28.882;2022-08-19T00:59:54;100236.56;;;21.12;83.04
71857;BME280;59712;46.980;28.882;2022-08-19T01:02:30;100226.91;;;21.09;83.29
71857;BME280;59712;46.980;28.882;2022-08-19T01:04:58;100234.13;;;21.08;83.00
71857;BME280;59712;46.980;28.882;2022-08-19T01:07:25;100230.56;;;21.08;83.13
71857;BME280;59712;46.980;28.882;2022-08-19T01:09:53;100232.44;;;21.07;83.04
71857;BME280;59712;46.980;28.882;2022-08-19T01:12:20;100240.53;;;21.07;82.71
71857;BME280;59712;46.980;28.882;2022-08-19T01:14:49;100236.81;;;21.08;83.05
71857;BME280;59712;46.980;28.882;2022-08-19T01:17:17;100239.53;;;21.08;82.62
71857;BME280;59712;46.980;28.882;2022-08-19T01:19:46;100244.06;;;21.08;82.66
71857;BME280;59712;46.980;28.882;2022-08-19T01:22:27;100237.25;;;21.04;82.53
71857;BME280;59712;46.980;28.882;2022-08-19T01:25:00;100234.41;;;21.05;82.91
71857;BME280;59712;46.980;28.882;2022-08-19T01:27:41;100234.66;;;21.02;82.69
71857;BME280;59712;46.980;28.882;2022-08-19T01:30:18;100229.56;;;20.99;82.99
71857;BME280;59712;46.980;28.882;2022-08-19T01:32:46;100225.97;;;20.99;82.64
71857;BME280;59712;46.980;28.882;2022-08-19T01:35:14;100230.41;;;21.00;83.17
71857;BME280;59712;46.980;28.882;2022-08-19T01:37:50;100219.03;;;20.96;83.14
71857;BME280;59712;46.980;28.882;2022-08-19T01:40:21;100222.72;;;20.95;83.27
71857;BME280;59712;46.980;28.882;2022-08-19T01:42:49;100231.09;;;20.92;83.25
71857;BME280;59712;46.980;28.882;2022-08-19T01:45:25;100234.06;;;20.89;83.33
71857;BME280;59712;46.980;28.882;2022-08-19T01:47:54;100241.16;;;20.90;83.52
71857;BME280;59712;46.980;28.882;2022-08-19T01:50:29;100234.19;;;20.87;83.50
71857;BME280;59712;46.980;28.882;2022-08-19T01:52:56;100237.03;;;20.86;83.06
71857;BME280;59712;46.980;28.882;2022-08-19T01:55:35;100229.22;;;20.83;83.42
71857;BME280;59712;46.980;28.882;2022-08-19T01:58:13;100230.78;;;20.85;83.13
71857;BME280;59712;46.980;28.882;2022-08-19T02:00:42;100236.31;;;20.84;83.43
71857;BME280;59712;46.980;28.882;2022-08-19T02:03:10;100235.59;;;20.82;83.21
71857;BME280;59712;46.980;28.882;2022-08-19T02:05:41;100233.88;;;20.81;83.55
71857;BME280;59712;46.980;28.882;2022-08-19T02:08:10;100237.56;;;20.80;83.40
71857;BME280;59712;46.980;28.882;2022-08-19T02:10:42;100238.72;;;20.77;83.61
71857;BME280;59712;46.980;28.882;2022-08-19T02:13:12;100238.72;;;20.77;83.35
71857;BME280;59712;46.980;28.882;2022-08-19T02:15:40;100236.97;;;20.76;83.40
71857;BME280;59712;46.980;28.882;2022-08-19T02:18:08;100239.81;;;20.75;83.41
71857;BME280;59712;46.980;28.882;2022-08-19T02:20:37;100240.94;;;20.72;83.73
71857;BME280;59712;46.980;28.882;2022-08-19T02:23:06;100246.63;;;20.69;84.08
71857;BME280;59712;46.980;28.882;2022-08-19T02:25:46;100249.44;;;20.67;84.08
71857;BME280;59712;46.980;28.882;2022-08-19T02:28:14;100254.00;;;20.67;84.38
71857;BME280;59712;46.980;28.882;2022-08-19T02:30:45;100250.59;;;20.65;83.78
71857;BME280;59712;46.980;28.882;2022-08-19T02:33:13;100247.13;;;20.63;84.15
71857;BME280;59712;46.980;28.882;2022-08-19T02:35:42;100256.09;;;20.63;83.72
71857;BME280;59712;46.980;28.882;2022-08-19T02:38:10;100249.72;;;20.64;83.76
71857;BME280;59712;46.980;28.882;2022-08-19T02:40:56;100264.94;;;20.65;83.68
71857;BME280;59712;46.980;28.882;2022-08-19T02:43:23;100258.81;;;20.63;83.77
71857;BME280;59712;46.980;28.882;2022-08-19T02:45:51;100262.47;;;20.62;83.62
71857;BME280;59712;46.980;28.882;2022-08-19T02:48:20;100252.53;;;20.63;83.36
71857;BME280;59712;46.980;28.882;2022-08-19T02:50:50;100252.53;;;20.63;83.43
71857;BME280;59712;46.980;28.882;2022-08-19T02:53:26;100251.69;;;20.62;83.37
71857;BME280;59712;46.980;28.882;2022-08-19T02:55:54;100253.66;;;20.60;83.12
71857;BME280;59712;46.980;28.882;2022-08-19T02:58:22;100250.97;;;20.60;83.54
71857;BME280;59712;46.980;28.882;2022-08-19T03:00:53;100257.47;;;20.58;83.51
71857;BME280;59712;46.980;28.882;2022-08-19T03:03:21;100261.13;;;20.57;83.21
71857;BME280;59712;46.980;28.882;2022-08-19T03:05:48;100271.78;;;20.58;83.41
71857;BME280;59712;46.980;28.882;2022-08-19T03:08:24;100271.91;;;20.57;83.29
71857;BME280;59712;46.980;28.882;2022-08-19T03:10:52;100277.19;;;20.58;83.46
71857;BME280;59712;46.980;28.882;2022-08-19T03:13:20;100281.75;;;20.58;83.20
71857;BME280;59712;46.980;28.882;2022-08-19T03:15:48;100292.44;;;20.59;83.27
71857;BME280;59712;46.980;28.882;2022-08-19T03:18:16;100298.56;;;20.61;82.77
71857;BME280;59712;46.980;28.882;2022-08-19T03:20:46;100301.09;;;20.63;82.61
71857;BME280;59712;46.980;28.882;2022-08-19T03:23:15;100298.16;;;20.66;82.57
71857;BME280;59712;46.980;28.882;2022-08-19T03:25:45;100293.59;;;20.66;82.66
71857;BME280;59712;46.980;28.882;2022-08-19T03:28:24;100294.06;;;20.72;82.15
71857;BME280;59712;46.980;28.882;2022-08-19T03:31:03;100291.09;;;20.75;82.08
71857;BME280;59712;46.980;28.882;2022-08-19T03:33:51;100293.13;;;20.82;82.00
71857;BME280;59712;46.980;28.882;2022-08-19T03:36:21;100295.56;;;20.85;82.21
71857;BME280;59712;46.980;28.882;2022-08-19T03:38:57;100296.72;;;20.93;81.79
71857;BME280;59712;46.980;28.882;2022-08-19T03:41:31;100293.66;;;20.97;81.46
71857;BME280;59712;46.980;28.882;2022-08-19T03:44:17;100299.94;;;21.07;81.56
71857;BME280;59712;46.980;28.882;2022-08-19T03:46:47;100298.00;;;21.19;80.75
71857;BME280;59712;46.980;28.882;2022-08-19T03:49:17;100300.75;;;21.29;80.53
71857;BME280;59712;46.980;28.882;2022-08-19T03:51:47;100293.66;;;21.38;80.48
71857;BME280;59712;46.980;28.882;2022-08-19T03:54:16;100299.97;;;21.48;80.94
71857;BME280;59712;46.980;28.882;2022-08-19T03:56:46;100294.03;;;21.64;79.70
71857;BME280;59712;46.980;28.882;2022-08-19T03:59:21;100284.81;;;21.76;79.42
71857;BME280;59712;46.980;28.882;2022-08-19T04:01:49;100282.25;;;21.94;77.99
71857;BME280;59712;46.980;28.882;2022-08-19T04:04:20;100296.06;;;22.11;77.68
71857;BME280;59712;46.980;28.882;2022-08-19T04:06:48;100291.53;;;22.31;78.33
71857;BME280;59712;46.980;28.882;2022-08-19T04:09:16;100287.81;;;22.61;77.91
71857;BME280;59712;46.980;28.882;2022-08-19T04:11:48;100287.56;;;22.92;77.34
71857;BME280;59712;46.980;28.882;2022-08-19T04:14:21;100296.34;;;23.23;75.57
71857;BME280;59712;46.980;28.882;2022-08-19T04:16:56;100296.88;;;23.54;74.04
71857;BME280;59712;46.980;28.882;2022-08-19T04:19:24;100299.03;;;23.78;72.01
71857;BME280;59712;46.980;28.882;2022-08-19T04:21:53;100292.00;;;24.03;70.55
71857;BME280;59712;46.980;28.882;2022-08-19T04:24:22;100294.56;;;24.23;70.62
71857;BME280;59712;46.980;28.882;2022-08-19T04:26:52;100303.22;;;24.44;69.23
71857;BME280;59712;46.980;28.882;2022-08-19T04:29:23;100308.47;;;24.64;68.28
71857;BME280;59712;46.980;28.882;2022-08-19T04:31:55;100309.75;;;24.78;67.89
71857;BME280;59712;46.980;28.882;2022-08-19T04:34:26;100317.88;;;24.96;67.15
71857;BME280;59712;46.980;28.882;2022-08-19T04:36:58;100305.94;;;25.15;66.18
71857;BME280;59712;46.980;28.882;2022-08-19T04:39:29;100318.59;;;25.32;65.46
71857;BME280;59712;46.980;28.882;2022-08-19T04:42:17;100317.34;;;25.53;64.66
71857;BME280;59712;46.980;28.882;2022-08-19T04:45:05;100317.75;;;25.74;64.33
71857;BME280;59712;46.980;28.882;2022-08-19T04:47:40;100321.06;;;25.94;64.17
71857;BME280;59712;46.980;28.882;2022-08-19T04:50:26;100313.09;;;26.26;64.13
71857;BME280;59712;46.980;28.882;2022-08-19T04:52:54;100315.66;;;26.60;62.92
71857;BME280;59712;46.980;28.882;2022-08-19T04:55:22;100309.84;;;26.79;62.07
71857;BME280;59712;46.980;28.882;2022-08-19T04:57:53;100308.94;;;27.03;61.34
71857;BME280;59712;46.980;28.882;2022-08-19T05:00:23;100314.38;;;27.20;60.38
71857;BME280;59712;46.980;28.882;2022-08-19T05:02:52;100305.16;;;27.29;59.24
71857;BME280;59712;46.980;28.882;2022-08-19T05:05:19;100310.09;;;27.26;59.04
71857;BME280;59712;46.980;28.882;2022-08-19T05:07:46;100316.38;;;27.42;59.22
71857;BME280;59712;46.980;28.882;2022-08-19T05:10:14;100311.50;;;27.61;56.90
71857;BME280;59712;46.980;28.882;2022-08-19T05:12:43;100308.59;;;27.63;57.57
71857;BME280;59712;46.980;28.882;2022-08-19T05:15:13;100309.22;;;27.73;58.75
71857;BME280;59712;46.980;28.882;2022-08-19T05:17:41;100305.53;;;27.97;58.26
71857;BME280;59712;46.980;28.882;2022-08-19T05:20:29;100309.59;;;28.01;56.55
71857;BME280;59712;46.980;28.882;2022-08-19T05:23:15;100307.09;;;27.91;56.09
71857;BME280;59712;46.980;28.882;2022-08-19T05:25:50;100308.28;;;27.57;56.02
71857;BME280;59712;46.980;28.882;2022-08-19T05:28:20;100311.66;;;27.12;56.85
71857;BME280;59712;46.980;28.882;2022-08-19T05:30:55;100312.28;;;26.66;58.48
71857;BME280;59712;46.980;28.882;2022-08-19T05:33:22;100316.00;;;26.32;58.90
71857;BME280;59712;46.980;28.882;2022-08-19T05:35:54;100314.75;;;26.02;60.00
71857;BME280;59712;46.980;28.882;2022-08-19T05:38:22;100324.88;;;25.75;60.71
71857;BME280;59712;46.980;28.882;2022-08-19T05:40:49;100315.47;;;25.53;62.01
71857;BME280;59712;46.980;28.882;2022-08-19T05:43:19;100314.56;;;25.36;62.18
71857;BME280;59712;46.980;28.882;2022-08-19T05:46:01;100321.03;;;25.17;62.55
71857;BME280;59712;46.980;28.882;2022-08-19T05:48:30;100316.06;;;25.04;63.83
71857;BME280;59712;46.980;28.882;2022-08-19T05:51:06;100312.22;;;24.89;64.17
71857;BME280;59712;46.980;28.882;2022-08-19T05:53:35;100313.19;;;24.80;64.38
71857;BME280;59712;46.980;28.882;2022-08-19T05:56:08;100313.47;;;24.69;64.63
71857;BME280;59712;46.980;28.882;2022-08-19T05:58:37;100320.53;;;24.61;64.48
71857;BME280;59712;46.980;28.882;2022-08-19T06:01:17;100308.28;;;24.57;64.96
71857;BME280;59712;46.980;28.882;2022-08-19T06:03:46;100311.63;;;24.51;65.60
71857;BME280;59712;46.980;28.882;2022-08-19T06:06:16;100314.94;;;24.45;65.78
71857;BME280;59712;46.980;28.882;2022-08-19T06:08:44;100308.81;;;24.43;65.80
71857;BME280;59712;46.980;28.882;2022-08-19T06:11:52;100302.34;;;24.44;65.42
71857;BME280;59712;46.980;28.882;2022-08-19T06:14:29;100305.69;;;24.38;65.26
71857;BME280;59712;46.980;28.882;2022-08-19T06:17:01;100303.13;;;24.36;66.14
71857;BME280;59712;46.980;28.882;2022-08-19T06:19:33;100314.19;;;24.35;66.33
71857;BME280;59712;46.980;28.882;2022-08-19T06:22:15;100314.19;;;24.35;66.20
71857;BME280;59712;46.980;28.882;2022-08-19T06:24:42;100313.16;;;24.36;66.64
71857;BME280;59712;46.980;28.882;2022-08-19T06:27:14;100315.56;;;24.39;66.70
71857;BME280;59712;46.980;28.882;2022-08-19T06:29:43;100303.53;;;24.41;66.77
71857;BME280;59712;46.980;28.882;2022-08-19T06:32:13;100304.91;;;24.45;66.96
71857;BME280;59712;46.980;28.882;2022-08-19T06:34:46;100298.66;;;24.45;66.58
71857;BME280;59712;46.980;28.882;2022-08-19T06:37:14;100288.47;;;24.47;66.84
71857;BME280;59712;46.980;28.882;2022-08-19T06:39:43;100297.72;;;24.54;67.17
71857;BME280;59712;46.980;28.882;2022-08-19T06:42:11;100297.41;;;24.57;66.60
71857;BME280;59712;46.980;28.882;2022-08-19T06:44:41;100306.72;;;24.55;66.36
71857;BME280;59712;46.980;28.882;2022-08-19T06:47:18;100304.03;;;24.55;66.63
71857;BME280;59712;46.980;28.882;2022-08-19T06:49:59;100305.25;;;24.60;66.23
71857;BME280;59712;46.980;28.882;2022-08-19T06:52:35;100305.75;;;24.64;66.44
71857;BME280;59712;46.980;28.882;2022-08-19T06:55:14;100305.81;;;24.72;66.22
71857;BME280;59712;46.980;28.882;2022-08-19T06:57:46;100306.06;;;24.79;66.31
71857;BME280;59712;46.980;28.882;2022-08-19T07:00:15;100323.75;;;24.83;66.21
71857;BME280;59712;46.980;28.882;2022-08-19T07:02:43;100311.69;;;24.85;65.86
71857;BME280;59712;46.980;28.882;2022-08-19T07:05:24;100299.00;;;24.94;65.33
71857;BME280;59712;46.980;28.882;2022-08-19T07:07:53;100306.56;;;25.09;64.64
71857;BME280;59712;46.980;28.882;2022-08-19T07:10:25;100316.47;;;25.18;64.17
71857;BME280;59712;46.980;28.882;2022-08-19T07:12:53;100316.03;;;25.22;64.90
71857;BME280;59712;46.980;28.882;2022-08-19T07:15:21;100309.25;;;25.27;65.14
71857;BME280;59712;46.980;28.882;2022-08-19T07:17:51;100311.16;;;25.34;64.06
71857;BME280;59712;46.980;28.882;2022-08-19T07:20:20;100315.59;;;25.43;63.68
71857;BME280;59712;46.980;28.882;2022-08-19T07:22:56;100324.47;;;25.54;63.02
71857;BME280;59712;46.980;28.882;2022-08-19T07:25:25;100326.75;;;25.67;62.60
71857;BME280;59712;46.980;28.882;2022-08-19T07:27:59;100323.34;;;25.73;62.52
71857;BME280;59712;46.980;28.882;2022-08-19T07:30:27;100321.16;;;25.76;63.10
71857;BME280;59712;46.980;28.882;2022-08-19T07:32:54;100330.69;;;25.72;63.40
71857;BME280;59712;46.980;28.882;2022-08-19T07:35:24;100331.84;;;25.78;62.73
71857;BME280;59712;46.980;28.882;2022-08-19T07:37:51;100333.06;;;25.83;63.01
71857;BME280;59712;46.980;28.882;2022-08-19T07:40:20;100321.91;;;25.95;62.06
71857;BME280;59712;46.980;28.882;2022-08-19T07:42:55;100318.34;;;26.02;61.96
71857;BME280;59712;46.980;28.882;2022-08-19T07:45:22;100319.22;;;26.19;58.98
71857;BME280;59712;46.980;28.882;2022-08-19T07:47:50;100307.84;;;26.32;58.06
71857;BME280;59712;46.980;28.882;2022-08-19T07:50:20;100313.44;;;26.39;57.96
71857;BME280;59712;46.980;28.882;2022-08-19T07:52:50;100303.75;;;26.45;58.12
71857;BME280;59712;46.980;28.882;2022-08-19T07:55:24;100299.50;;;26.58;57.90
71857;BME280;59712;46.980;28.882;2022-08-19T07:58:15;100300.50;;;26.66;58.13
71857;BME280;59712;46.980;28.882;2022-08-19T08:00:45;100300.31;;;26.83;57.11
71857;BME280;59712;46.980;28.882;2022-08-19T08:03:16;100306.59;;;27.00;55.90
71857;BME280;59712;46.980;28.882;2022-08-19T08:05:46;100310.63;;;27.13;54.89
71857;BME280;59712;46.980;28.882;2022-08-19T08:08:32;100299.38;;;27.16;54.79
71857;BME280;59712;46.980;28.882;2022-08-19T08:11:20;100309.94;;;27.27;54.17
71857;BME280;59712;46.980;28.882;2022-08-19T08:13:49;100315.06;;;27.30;55.26
71857;BME280;59712;46.980;28.882;2022-08-19T08:16:28;100308.69;;;27.38;54.82
71857;BME280;59712;46.980;28.882;2022-08-19T08:19:13;100314.59;;;27.50;53.61
71857;BME280;59712;46.980;28.882;2022-08-19T08:22:08;100327.53;;;27.56;52.98
71857;BME280;59712;46.980;28.882;2022-08-19T08:25:08;100332.97;;;28.27;52.46
71857;BME280;59712;46.980;28.882;2022-08-19T08:27:41;100331.53;;;29.30;49.49
71857;BME280;59712;46.980;28.882;2022-08-19T08:30:15;100330.38;;;30.27;47.34
71857;BME280;59712;46.980;28.882;2022-08-19T08:33:17;100323.97;;;31.19;46.93
71857;BME280;59712;46.980;28.882;2022-08-19T08:36:07;100324.00;;;32.29;44.02
71857;BME280;59712;46.980;28.882;2022-08-19T08:38:35;100324.91;;;32.89;40.48
71857;BME280;59712;46.980;28.882;2022-08-19T08:41:46;100329.94;;;32.52;40.39
71857;BME280;59712;46.980;28.882;2022-08-19T08:44:18;100320.25;;;32.83;39.98
71857;BME280;59712;46.980;28.882;2022-08-19T08:46:58;100317.25;;;32.85;39.18
71857;BME280;59712;46.980;28.882;2022-08-19T08:49:40;100312.22;;;32.62;40.36
71857;BME280;59712;46.980;28.882;2022-08-19T08:52:22;100308.78;;;33.00;39.03
71857;BME280;59712;46.980;28.882;2022-08-19T08:55:03;100311.13;;;32.96;38.44
71857;BME280;59712;46.980;28.882;2022-08-19T08:58:01;100313.22;;;33.07;37.67
71857;BME280;59712;46.980;28.882;2022-08-19T09:00:41;100309.00;;;32.98;38.84
71857;BME280;59712;46.980;28.882;2022-08-19T09:09:05;100313.03;;;32.69;37.79
71857;BME280;59712;46.980;28.882;2022-08-19T09:11:41;100326.13;;;33.20;37.51
71857;BME280;59712;46.980;28.882;2022-08-19T09:17:15;100319.41;;;34.06;36.84
71857;BME280;59712;46.980;28.882;2022-08-19T09:20:04;100317.59;;;34.82;36.52
71857;BME280;59712;46.980;28.882;2022-08-19T09:22:40;100303.31;;;34.67;34.79
71857;BME280;59712;46.980;28.882;2022-08-19T09:25:14;100313.97;;;33.93;35.98
71857;BME280;59712;46.980;28.882;2022-08-19T09:27:42;100307.53;;;33.61;36.04
71857;BME280;59712;46.980;28.882;2022-08-19T09:30:12;100315.41;;;33.57;36.31
71857;BME280;59712;46.980;28.882;2022-08-19T09:32:47;100313.25;;;33.72;35.99
71857;BME280;59712;46.980;28.882;2022-08-19T09:35:31;100304.41;;;34.34;34.94
71857;BME280;59712;46.980;28.882;2022-08-19T09:38:16;100300.97;;;34.39;35.42
71857;BME280;59712;46.980;28.882;2022-08-19T09:40:43;100293.72;;;35.13;35.17
71857;BME280;59712;46.980;28.882;2022-08-19T09:43:12;100305.38;;;35.70;33.58
71857;BME280;59712;46.980;28.882;2022-08-19T09:46:00;100290.88;;;35.57;33.09
71857;BME280;59712;46.980;28.882;2022-08-19T09:48:32;100303.13;;;34.87;35.03
71857;BME280;59712;46.980;28.882;2022-08-19T09:51:13;100301.34;;;35.36;34.74
71857;BME280;59712;46.980;28.882;2022-08-19T09:53:44;100302.34;;;35.90;34.05
71857;BME280;59712;46.980;28.882;2022-08-19T09:56:13;100302.22;;;36.81;33.32
71857;BME280;59712;46.980;28.882;2022-08-19T09:58:40;100298.03;;;37.55;31.75
71857;BME280;59712;46.980;28.882;2022-08-19T10:01:08;100305.13;;;37.91;31.88
71857;BME280;59712;46.980;28.882;2022-08-19T10:03:56;100304.34;;;38.08;30.09
71857;BME280;59712;46.980;28.882;2022-08-19T10:06:29;100302.78;;;38.00;30.42
71857;BME280;59712;46.980;28.882;2022-08-19T10:09:14;100302.28;;;38.15;29.88
71857;BME280;59712;46.980;28.882;2022-08-19T10:11:44;100309.41;;;38.28;30.62
71857;BME280;59712;46.980;28.882;2022-08-19T10:14:21;100308.81;;;38.42;30.04
71857;BME280;59712;46.980;28.882;2022-08-19T10:16:50;100310.19;;;38.23;29.33
71857;BME280;59712;46.980;28.882;2022-08-19T10:19:19;100307.81;;;37.86;30.38
71857;BME280;59712;46.980;28.882;2022-08-19T10:21:53;100307.78;;;37.57;30.66
71857;BME280;59712;46.980;28.882;2022-08-19T10:24:26;100316.66;;;38.29;30.31
71857;BME280;59712;46.980;28.882;2022-08-19T10:26:55;100316.91;;;37.17;29.65
71857;BME280;59712;46.980;28.882;2022-08-19T10:29:30;100305.75;;;35.00;34.32
71857;BME280;59712;46.980;28.882;2022-08-19T10:32:01;100301.84;;;35.45;33.99
71857;BME280;59712;46.980;28.882;2022-08-19T10:34:30;100307.88;;;34.98;35.23
71857;BME280;59712;46.980;28.882;2022-08-19T10:37:00;100301.16;;;35.13;34.83
71857;BME280;59712;46.980;28.882;2022-08-19T10:39:34;100312.66;;;34.02;36.26
71857;BME280;59712;46.980;28.882;2022-08-19T10:42:24;100317.09;;;33.65;38.02
71857;BME280;59712;46.980;28.882;2022-08-19T10:44:52;100317.53;;;33.62;37.08
71857;BME280;59712;46.980;28.882;2022-08-19T10:47:23;100312.53;;;33.32;36.59
71857;BME280;59712;46.980;28.882;2022-08-19T10:49:57;100316.84;;;32.88;38.11
71857;BME280;59712;46.980;28.882;2022-08-19T10:52:45;100320.22;;;33.03;37.80
71857;BME280;59712;46.980;28.882;2022-08-19T10:55:20;100311.31;;;33.08;37.50
71857;BME280;59712;46.980;28.882;2022-08-19T10:58:14;100329.50;;;33.22;38.42
71857;BME280;59712;46.980;28.882;2022-08-19T11:00:42;100326.44;;;33.64;38.21
71857;BME280;59712;46.980;28.882;2022-08-19T11:03:12;100310.91;;;33.11;38.47
71857;BME280;59712;46.980;28.882;2022-08-19T11:05:40;100307.72;;;33.07;38.46
71857;BME280;59712;46.980;28.882;2022-08-19T11:08:08;100308.78;;;33.06;37.13
71857;BME280;59712;46.980;28.882;2022-08-19T11:10:53;100311.97;;;32.50;37.17
71857;BME280;59712;46.980;28.882;2022-08-19T11:13:28;100310.88;;;32.04;38.13
71857;BME280;59712;46.980;28.882;2022-08-19T11:16:00;100309.94;;;31.84;38.76
71857;BME280;59712;46.980;28.882;2022-08-19T11:18:42;100302.59;;;31.98;40.09
71857;BME280;59712;46.980;28.882;2022-08-19T11:21:15;100310.78;;;31.91;39.83
71857;BME280;59712;46.980;28.882;2022-08-19T11:23:48;100303.47;;;32.05;39.25
71857;BME280;59712;46.980;28.882;2022-08-19T11:26:17;100299.66;;;32.12;39.18
71857;BME280;59712;46.980;28.882;2022-08-19T11:28:44;100291.88;;;32.09;38.52
71857;BME280;59712;46.980;28.882;2022-08-19T11:31:17;100291.81;;;31.96;38.28
71857;BME280;59712;46.980;28.882;2022-08-19T11:33:45;100291.75;;;31.76;39.30
71857;BME280;59712;46.980;28.882;2022-08-19T11:36:14;100296.34;;;31.62;38.33
71857;BME280;59712;46.980;28.882;2022-08-19T11:38:43;100290.47;;;31.30;38.38
71857;BME280;59712;46.980;28.882;2022-08-19T11:41:10;100282.97;;;31.04;39.60
71857;BME280;59712;46.980;28.882;2022-08-19T11:43:38;100284.34;;;30.93;39.73
71857;BME280;59712;46.980;28.882;2022-08-19T11:46:08;100278.13;;;30.78;40.15
71857;BME280;59712;46.980;28.882;2022-08-19T11:48:37;100287.66;;;30.54;40.54
71857;BME280;59712;46.980;28.882;2022-08-19T11:51:07;100284.56;;;30.21;41.45
71857;BME280;59712;46.980;28.882;2022-08-19T11:53:36;100281.56;;;30.15;41.61
71857;BME280;59712;46.980;28.882;2022-08-19T11:56:03;100277.00;;;30.23;41.10
71857;BME280;59712;46.980;28.882;2022-08-19T11:58:31;100275.00;;;30.31;41.66
71857;BME280;59712;46.980;28.882;2022-08-19T12:00:59;100267.66;;;30.32;40.63
71857;BME280;59712;46.980;28.882;2022-08-19T12:03:26;100275.53;;;30.20;40.17
71857;BME280;59712;46.980;28.882;2022-08-19T12:05:55;100271.34;;;30.24;41.48
71857;BME280;59712;46.980;28.882;2022-08-19T12:08:22;100267.66;;;30.32;40.98
71857;BME280;59712;46.980;28.882;2022-08-19T12:10:49;100259.00;;;30.35;41.72
71857;BME280;59712;46.980;28.882;2022-08-19T12:13:16;100259.31;;;30.47;41.03
71857;BME280;59712;46.980;28.882;2022-08-19T12:15:47;100252.19;;;30.52;41.88
71857;BME280;59712;46.980;28.882;2022-08-19T12:18:14;100248.50;;;30.67;40.84
71857;BME280;59712;46.980;28.882;2022-08-19T12:20:42;100251.69;;;30.70;39.51
71857;BME280;59712;46.980;28.882;2022-08-19T12:23:10;100245.13;;;30.65;40.73
71857;BME280;59712;46.980;28.882;2022-08-19T12:25:43;100258.63;;;30.66;40.37
71857;BME280;59712;46.980;28.882;2022-08-19T12:28:19;100243.00;;;30.67;40.67
71857;BME280;59712;46.980;28.882;2022-08-19T12:30:48;100244.75;;;30.74;41.24
71857;BME280;59712;46.980;28.882;2022-08-19T12:33:19;100241.03;;;30.82;39.83
71857;BME280;59712;46.980;28.882;2022-08-19T12:35:51;100240.88;;;30.90;40.97
71857;BME280;59712;46.980;28.882;2022-08-19T12:38:19;100243.72;;;31.10;41.16
71857;BME280;59712;46.980;28.882;2022-08-19T12:40:46;100239.78;;;31.26;39.63
71857;BME280;59712;46.980;28.882;2022-08-19T12:43:15;100239.63;;;31.34;39.76
71857;BME280;59712;46.980;28.882;2022-08-19T12:45:42;100235.59;;;31.37;39.91
71857;BME280;59712;46.980;28.882;2022-08-19T12:48:13;100229.00;;;31.18;39.46
71857;BME280;59712;46.980;28.882;2022-08-19T12:51:09;100239.91;;;31.05;40.08
71857;BME280;59712;46.980;28.882;2022-08-19T12:53:36;100240.31;;;31.02;40.70
71857;BME280;59712;46.980;28.882;2022-08-19T12:56:19;100230.19;;;31.02;41.09
71857;BME280;59712;46.980;28.882;2022-08-19T12:58:49;100232.94;;;31.09;39.30
71857;BME280;59712;46.980;28.882;2022-08-19T13:01:22;100237.31;;;30.96;39.96
71857;BME280;59712;46.980;28.882;2022-08-19T13:03:50;100234.34;;;30.91;40.04
71857;BME280;59712;46.980;28.882;2022-08-19T13:06:21;100231.72;;;30.83;40.38
71857;BME280;59712;46.980;28.882;2022-08-19T13:08:50;100231.53;;;30.85;40.62
71857;BME280;59712;46.980;28.882;2022-08-19T13:11:34;100229.63;;;30.85;40.94
71857;BME280;59712;46.980;28.882;2022-08-19T13:14:02;100231.31;;;30.80;40.95
71857;BME280;59712;46.980;28.882;2022-08-19T13:16:30;100223.31;;;30.85;40.98
71857;BME280;59712;46.980;28.882;2022-08-19T13:18:58;100224.25;;;30.99;39.95